createdAt,value
2018-07-02T00:00:06.267Z,11.88
2018-07-02T00:01:06.109Z,11.88
2018-07-02T00:02:06.187Z,11.88
2018-07-02T00:03:05.933Z,11.81
2018-07-02T00:04:10.803Z,11.81
2018-07-02T00:05:06.032Z,11.81
2018-07-02T00:06:05.534Z,11.81
2018-07-02T00:07:05.984Z,11.81
2018-07-02T00:08:05.588Z,11.75
2018-07-02T00:09:11.352Z,11.75
2018-07-02T00:10:05.927Z,11.75
2018-07-02T00:11:05.784Z,11.75
2018-07-02T00:12:06.242Z,11.69
2018-07-02T00:13:05.979Z,11.69
2018-07-02T00:14:05.879Z,11.69
2018-07-02T00:15:06.339Z,11.69
2018-07-02T00:16:05.627Z,11.69
2018-07-02T00:17:06.576Z,11.69
2018-07-02T00:18:05.844Z,11.69
2018-07-02T00:19:06.192Z,11.69
2018-07-02T00:20:05.531Z,11.69
2018-07-02T00:21:06.178Z,11.62
2018-07-02T00:22:05.920Z,11.62
2018-07-02T00:23:05.530Z,11.62
2018-07-02T00:24:06.208Z,11.62
2018-07-02T00:25:06.104Z,11.56
2018-07-02T00:26:06.083Z,11.56
2018-07-02T00:27:06.262Z,11.56
2018-07-02T00:28:05.580Z,11.56
2018-07-02T00:29:06.107Z,11.56
2018-07-02T00:30:06.197Z,11.50
2018-07-02T00:31:10.977Z,11.50
2018-07-02T00:32:06.201Z,11.50
2018-07-02T00:33:06.341Z,11.50
2018-07-02T00:34:06.218Z,11.50
2018-07-02T00:35:05.615Z,11.44
2018-07-02T00:36:05.715Z,11.44
2018-07-02T00:37:06.009Z,11.44
2018-07-02T00:38:06.012Z,11.44
2018-07-02T00:39:06.173Z,11.44
2018-07-02T00:40:05.788Z,11.44
2018-07-02T00:41:06.208Z,11.44
2018-07-02T00:42:06.335Z,11.38
2018-07-02T00:43:06.164Z,11.38
2018-07-02T00:44:05.542Z,11.38
2018-07-02T00:45:06.339Z,11.38
2018-07-02T00:46:06.014Z,11.31
2018-07-02T00:47:05.527Z,11.31
2018-07-02T00:48:06.011Z,11.31
2018-07-02T00:49:06.178Z,11.25
2018-07-02T00:50:06.155Z,11.25
2018-07-02T00:51:06.274Z,11.25
2018-07-02T00:52:06.330Z,11.25
2018-07-02T00:53:05.644Z,11.19
2018-07-02T00:54:05.525Z,11.19
2018-07-02T00:55:06.425Z,11.19
2018-07-02T00:56:05.945Z,11.19
2018-07-02T00:57:05.944Z,11.12
2018-07-02T00:58:05.894Z,11.12
2018-07-02T00:59:06.339Z,11.06
2018-07-02T01:00:06.007Z,11.06
2018-07-02T01:01:06.345Z,11.00
2018-07-02T01:02:06.419Z,11.00
2018-07-02T01:03:06.685Z,11.00
2018-07-02T01:04:05.740Z,11.00
2018-07-02T01:05:05.702Z,10.94
2018-07-02T01:06:05.763Z,10.94
2018-07-02T01:07:06.342Z,10.94
2018-07-02T01:08:10.782Z,10.88
2018-07-02T01:09:05.367Z,10.88
2018-07-02T01:10:05.370Z,10.88
2018-07-02T01:11:05.778Z,10.81
2018-07-02T01:12:05.374Z,10.81
2018-07-02T01:13:06.532Z,10.81
2018-07-02T01:14:06.079Z,10.75
2018-07-02T01:15:10.560Z,10.75
2018-07-02T01:16:06.262Z,10.75
2018-07-02T01:17:06.104Z,10.75
2018-07-02T01:18:06.416Z,10.75
2018-07-02T01:19:05.800Z,10.75
2018-07-02T01:20:05.915Z,10.75
2018-07-02T01:21:05.616Z,10.69
2018-07-02T01:22:06.138Z,10.75
2018-07-02T01:23:05.862Z,10.75
2018-07-02T01:24:06.296Z,10.69
2018-07-02T01:25:05.795Z,10.69
2018-07-02T01:26:06.253Z,10.69
2018-07-02T01:27:06.033Z,10.69
2018-07-02T01:28:05.939Z,10.69
2018-07-02T01:29:05.449Z,10.69
2018-07-02T01:30:06.183Z,10.69
2018-07-02T01:31:05.925Z,10.69
2018-07-02T01:32:05.883Z,10.62
2018-07-02T01:33:05.553Z,10.62
2018-07-02T01:34:05.952Z,10.62
2018-07-02T01:35:06.503Z,10.56
2018-07-02T01:36:06.314Z,10.56
2018-07-02T01:37:05.537Z,10.56
2018-07-02T01:38:05.523Z,10.50
2018-07-02T01:39:05.978Z,10.50
2018-07-02T01:40:06.442Z,10.56
2018-07-02T01:41:06.429Z,10.56
2018-07-02T01:42:05.931Z,10.50
2018-07-02T01:43:06.176Z,10.50
2018-07-02T01:44:10.732Z,10.50
2018-07-02T01:45:05.969Z,10.50
2018-07-02T01:46:05.446Z,10.50
2018-07-02T01:47:05.444Z,10.50
2018-07-02T01:48:05.704Z,10.50
2018-07-02T01:49:05.613Z,10.44
2018-07-02T01:50:06.640Z,10.44
2018-07-02T01:51:06.495Z,10.38
2018-07-02T01:52:06.394Z,10.38
2018-07-02T01:53:05.872Z,10.38
2018-07-02T01:54:05.446Z,10.38
2018-07-02T01:55:05.714Z,10.38
2018-07-02T01:56:06.480Z,10.38
2018-07-02T01:57:05.782Z,10.38
2018-07-02T01:58:06.096Z,10.31
2018-07-02T01:59:06.562Z,10.31
2018-07-02T02:00:05.921Z,10.31
2018-07-02T02:01:06.044Z,10.31
2018-07-02T02:02:05.691Z,10.31
2018-07-02T02:03:06.174Z,10.25
2018-07-02T02:04:06.233Z,10.25
2018-07-02T02:05:05.619Z,10.25
2018-07-02T02:06:06.209Z,10.19
2018-07-02T02:07:11.181Z,10.19
2018-07-02T02:08:05.786Z,10.12
2018-07-02T02:09:06.014Z,10.12
2018-07-02T02:10:05.963Z,10.12
2018-07-02T02:11:11.357Z,10.12
2018-07-02T02:12:10.703Z,10.12
2018-07-02T02:13:06.246Z,10.12
2018-07-02T02:14:06.380Z,10.12
2018-07-02T02:15:06.296Z,10.06
2018-07-02T02:16:11.114Z,10.06
2018-07-02T02:17:06.421Z,10.00
2018-07-02T02:18:06.598Z,10.06
2018-07-02T02:19:05.931Z,10.00
2018-07-02T02:20:06.019Z,10.00
2018-07-02T02:21:06.277Z,10.00
2018-07-02T02:22:06.175Z,9.94
2018-07-02T02:23:06.054Z,9.94
2018-07-02T02:24:05.683Z,9.94
2018-07-02T02:25:06.271Z,9.94
2018-07-02T02:26:05.361Z,9.88
2018-07-02T02:27:06.756Z,9.88
2018-07-02T02:28:05.971Z,9.88
2018-07-02T02:29:05.712Z,9.88
2018-07-02T02:30:11.306Z,9.88
2018-07-02T02:31:06.297Z,9.88
2018-07-02T02:32:06.412Z,9.81
2018-07-02T02:33:06.339Z,9.81
2018-07-02T02:34:06.465Z,9.81
2018-07-02T02:35:05.705Z,9.75
2018-07-02T02:36:06.169Z,9.75
2018-07-02T02:37:05.749Z,9.75
2018-07-02T02:38:05.522Z,9.75
2018-07-02T02:39:06.173Z,9.69
2018-07-02T02:40:07.485Z,9.69
2018-07-02T02:41:06.101Z,9.69
2018-07-02T02:42:06.336Z,9.69
2018-07-02T02:43:06.683Z,9.69
2018-07-02T02:44:05.784Z,9.62
2018-07-02T02:45:06.160Z,9.62
2018-07-02T02:46:05.950Z,9.62
2018-07-02T02:47:06.516Z,9.62
2018-07-02T02:48:05.961Z,9.62
2018-07-02T02:49:06.070Z,9.56
2018-07-02T02:50:05.982Z,9.62
2018-07-02T02:51:06.326Z,9.62
2018-07-02T02:52:06.174Z,9.62
2018-07-02T02:53:05.702Z,9.56
2018-07-02T02:54:06.072Z,9.56
2018-07-02T02:55:05.716Z,9.56
2018-07-02T02:56:10.466Z,9.50
2018-07-02T02:57:11.043Z,9.50
2018-07-02T02:58:06.346Z,9.50
2018-07-02T02:59:06.024Z,9.50
2018-07-02T03:00:05.573Z,9.44
2018-07-02T03:01:06.353Z,9.44
2018-07-02T03:02:06.277Z,9.44
2018-07-02T03:03:05.540Z,9.44
2018-07-02T03:04:06.154Z,9.44
2018-07-02T03:05:06.121Z,9.38
2018-07-02T03:06:05.937Z,9.38
2018-07-02T03:07:05.931Z,9.38
2018-07-02T03:08:05.771Z,9.38
2018-07-02T03:09:06.337Z,9.38
2018-07-02T03:10:05.546Z,9.31
2018-07-02T03:11:06.448Z,9.31
2018-07-02T03:12:05.849Z,9.31
2018-07-02T03:13:05.624Z,9.25
2018-07-02T03:14:05.610Z,9.25
2018-07-02T03:15:06.064Z,9.25
2018-07-02T03:16:05.850Z,9.25
2018-07-02T03:17:06.333Z,9.25
2018-07-02T03:18:10.861Z,9.25
2018-07-02T03:19:06.106Z,9.25
2018-07-02T03:20:11.172Z,9.25
2018-07-02T03:21:06.537Z,9.25
2018-07-02T03:22:05.956Z,9.19
2018-07-02T03:23:06.391Z,9.19
2018-07-02T03:24:05.860Z,9.19
2018-07-02T03:25:05.844Z,9.19
2018-07-02T03:26:06.173Z,9.19
2018-07-02T03:27:06.413Z,9.19
2018-07-02T03:28:10.953Z,9.12
2018-07-02T03:29:06.175Z,9.12
2018-07-02T03:30:05.699Z,9.12
2018-07-02T03:31:06.271Z,9.12
2018-07-02T03:32:05.588Z,9.12
2018-07-02T03:33:06.164Z,9.12
2018-07-02T03:34:06.029Z,9.06
2018-07-02T03:35:06.675Z,9.06
2018-07-02T03:36:06.037Z,9.12
2018-07-02T03:37:10.978Z,9.12
2018-07-02T03:38:06.618Z,9.06
2018-07-02T03:39:06.008Z,9.06
2018-07-02T03:40:06.564Z,9.06
2018-07-02T03:41:05.860Z,9.12
2018-07-02T03:42:06.838Z,9.12
2018-07-02T03:43:05.953Z,9.25
2018-07-02T03:44:05.862Z,9.31
2018-07-02T03:45:06.278Z,9.38
2018-07-02T03:46:06.492Z,9.50
2018-07-02T03:47:06.399Z,9.56
2018-07-02T03:48:05.779Z,9.62
2018-07-02T03:49:06.260Z,9.69
2018-07-02T03:50:06.499Z,9.75
2018-07-02T03:51:05.784Z,9.81
2018-07-02T03:52:05.679Z,9.88
2018-07-02T03:53:06.259Z,10.00
2018-07-02T03:54:10.802Z,10.06
2018-07-02T03:55:06.325Z,10.19
2018-07-02T03:56:06.034Z,10.31
2018-07-02T03:57:05.688Z,10.44
2018-07-02T03:58:06.430Z,10.62
2018-07-02T03:59:06.538Z,10.75
2018-07-02T04:00:06.232Z,10.88
2018-07-02T04:01:05.706Z,11.00
2018-07-02T04:02:06.501Z,11.12
2018-07-02T04:03:05.781Z,11.25
2018-07-02T04:04:06.054Z,11.44
2018-07-02T04:05:06.353Z,11.56
2018-07-02T04:06:06.498Z,11.75
2018-07-02T04:07:06.676Z,11.94
2018-07-02T04:08:06.678Z,12.06
2018-07-02T04:09:06.439Z,12.25
2018-07-02T04:10:05.878Z,12.44
2018-07-02T04:11:10.630Z,12.56
2018-07-02T04:12:06.248Z,12.75
2018-07-02T04:13:06.230Z,12.94
2018-07-02T04:14:10.959Z,13.12
2018-07-02T04:15:06.097Z,13.31
2018-07-02T04:16:05.767Z,13.44
2018-07-02T04:17:06.380Z,13.56
2018-07-02T04:18:05.639Z,13.75
2018-07-02T04:19:05.864Z,13.94
2018-07-02T04:20:06.018Z,14.19
2018-07-02T04:21:06.330Z,14.38
2018-07-02T04:22:05.459Z,14.56
2018-07-02T04:23:06.415Z,14.75
2018-07-02T04:24:05.540Z,14.94
2018-07-02T04:25:05.684Z,15.06
2018-07-02T04:26:06.105Z,15.31
2018-07-02T04:27:05.530Z,15.50
2018-07-02T04:28:06.331Z,15.62
2018-07-02T04:29:05.962Z,15.81
2018-07-02T04:30:05.817Z,16.00
2018-07-02T04:31:06.489Z,16.19
2018-07-02T04:32:06.110Z,16.38
2018-07-02T04:33:05.705Z,16.50
2018-07-02T04:34:06.255Z,16.69
2018-07-02T04:35:06.652Z,16.88
2018-07-02T04:36:05.859Z,17.00
2018-07-02T04:37:06.002Z,17.19
2018-07-02T04:38:05.934Z,17.38
2018-07-02T04:39:06.331Z,17.56
2018-07-02T04:40:05.924Z,17.69
2018-07-02T04:41:06.177Z,17.88
2018-07-02T04:42:06.332Z,18.06
2018-07-02T04:43:06.331Z,18.25
2018-07-02T04:44:05.885Z,18.44
2018-07-02T04:45:05.510Z,18.62
2018-07-02T04:46:06.020Z,18.88
2018-07-02T04:47:06.172Z,19.06
2018-07-02T04:48:05.712Z,19.25
2018-07-02T04:49:06.087Z,19.44
2018-07-02T04:50:05.940Z,19.62
2018-07-02T04:51:06.252Z,19.81
2018-07-02T04:52:06.114Z,19.94
2018-07-02T04:53:07.001Z,20.12
2018-07-02T04:54:05.692Z,20.31
2018-07-02T04:55:10.423Z,20.44
2018-07-02T04:56:05.774Z,20.62
2018-07-02T04:57:06.523Z,20.81
2018-07-02T04:58:06.267Z,21.00
2018-07-02T04:59:06.091Z,21.19
2018-07-02T05:00:06.033Z,21.38
2018-07-02T05:01:06.384Z,21.62
2018-07-02T05:02:07.450Z,21.81
2018-07-02T05:03:06.250Z,22.00
2018-07-02T05:04:05.541Z,22.19
2018-07-02T05:05:06.882Z,22.38
2018-07-02T05:06:05.935Z,22.56
2018-07-02T05:07:06.110Z,22.75
2018-07-02T05:08:06.503Z,22.94
2018-07-02T05:09:06.022Z,23.12
2018-07-02T05:10:06.379Z,23.25
2018-07-02T05:11:06.268Z,23.44
2018-07-02T05:12:06.460Z,23.62
2018-07-02T05:13:05.473Z,23.81
2018-07-02T05:14:05.964Z,23.94
2018-07-02T05:15:06.421Z,24.06
2018-07-02T05:16:06.175Z,24.19
2018-07-02T05:17:06.322Z,24.38
2018-07-02T05:18:06.109Z,24.56
2018-07-02T05:19:06.112Z,24.69
2018-07-02T05:20:06.097Z,24.88
2018-07-02T05:21:05.784Z,25.12
2018-07-02T05:22:05.958Z,25.44
2018-07-02T05:23:05.852Z,25.75
2018-07-02T05:24:05.868Z,26.06
2018-07-02T05:25:10.660Z,26.38
2018-07-02T05:26:06.114Z,26.62
2018-07-02T05:27:06.253Z,26.88
2018-07-02T05:28:05.640Z,27.06
2018-07-02T05:29:06.237Z,27.31
2018-07-02T05:30:06.426Z,27.50
2018-07-02T05:31:06.394Z,27.69
2018-07-02T05:32:06.033Z,28.00
2018-07-02T05:33:05.720Z,28.31
2018-07-02T05:34:06.020Z,28.50
2018-07-02T05:35:06.195Z,28.75
2018-07-02T05:36:06.036Z,29.00
2018-07-02T05:37:05.567Z,29.12
2018-07-02T05:38:06.155Z,29.25
2018-07-02T05:39:06.517Z,29.44
2018-07-02T05:40:06.483Z,29.62
2018-07-02T05:41:05.466Z,29.75
2018-07-02T05:42:06.051Z,29.81
2018-07-02T05:43:06.414Z,30.00
2018-07-02T05:44:06.165Z,30.06
2018-07-02T05:45:06.166Z,30.06
2018-07-02T05:46:05.937Z,30.06
2018-07-02T05:47:05.943Z,30.19
2018-07-02T05:48:06.348Z,30.25
2018-07-02T05:49:05.700Z,30.38
2018-07-02T05:50:06.176Z,30.44
2018-07-02T05:51:05.868Z,30.50
2018-07-02T05:52:05.944Z,30.56
2018-07-02T05:53:06.096Z,30.56
2018-07-02T05:54:05.614Z,30.56
2018-07-02T05:55:06.408Z,30.62
2018-07-02T05:56:06.380Z,30.62
2018-07-02T05:57:11.117Z,30.56
2018-07-02T05:58:05.624Z,30.56
2018-07-02T05:59:06.557Z,30.56
2018-07-02T06:00:06.371Z,30.50
2018-07-02T06:01:05.969Z,30.44
2018-07-02T06:02:05.536Z,30.38
2018-07-02T06:03:06.287Z,30.25
2018-07-02T06:04:05.427Z,30.12
2018-07-02T06:05:05.864Z,30.06
2018-07-02T06:06:05.710Z,29.94
2018-07-02T06:07:05.713Z,29.81
2018-07-02T06:08:06.778Z,29.62
2018-07-02T06:09:05.871Z,29.50
2018-07-02T06:10:06.210Z,29.44
2018-07-02T06:11:05.544Z,29.38
2018-07-02T06:12:06.033Z,29.31
2018-07-02T06:13:06.089Z,29.31
2018-07-02T06:14:05.621Z,29.31
2018-07-02T06:15:06.303Z,29.31
2018-07-02T06:16:05.758Z,29.38
2018-07-02T06:17:05.710Z,29.44
2018-07-02T06:18:05.874Z,29.44
2018-07-02T06:19:05.589Z,29.56
2018-07-02T06:20:05.953Z,29.56
2018-07-02T06:21:06.183Z,29.62
2018-07-02T06:22:06.262Z,29.69
2018-07-02T06:23:05.949Z,29.75
2018-07-02T06:24:06.199Z,29.81
2018-07-02T06:25:06.374Z,29.88
2018-07-02T06:26:06.078Z,29.88
2018-07-02T06:27:05.955Z,29.88
2018-07-02T06:28:05.957Z,29.94
2018-07-02T06:29:05.889Z,30.00
2018-07-02T06:30:06.173Z,29.94
2018-07-02T06:31:06.339Z,30.00
2018-07-02T06:32:06.321Z,30.06
2018-07-02T06:33:05.544Z,30.06
2018-07-02T06:34:05.504Z,30.06
2018-07-02T06:35:06.738Z,30.06
2018-07-02T06:36:11.374Z,30.12
2018-07-02T06:37:05.807Z,30.25
2018-07-02T06:38:06.183Z,30.31
2018-07-02T06:39:06.027Z,30.31
2018-07-02T06:40:05.777Z,30.31
2018-07-02T06:41:06.482Z,30.25
2018-07-02T06:42:05.620Z,30.25
2018-07-02T06:43:11.145Z,30.31
2018-07-02T06:44:05.882Z,30.38
2018-07-02T06:45:06.537Z,30.31
2018-07-02T06:46:05.795Z,30.19
2018-07-02T06:47:06.027Z,30.19
2018-07-02T06:48:06.815Z,30.12
2018-07-02T06:49:05.857Z,30.19
2018-07-02T06:50:05.392Z,30.25
2018-07-02T06:51:06.551Z,30.00
2018-07-02T06:52:05.715Z,29.94
2018-07-02T06:53:06.407Z,29.75
2018-07-02T06:54:05.958Z,29.69
2018-07-02T06:55:05.630Z,29.56
2018-07-02T06:56:06.040Z,29.50
2018-07-02T06:57:05.495Z,29.69
2018-07-02T06:58:06.177Z,29.75
2018-07-02T06:59:06.122Z,29.56
2018-07-02T07:00:06.197Z,29.62
2018-07-02T07:01:05.723Z,29.75
2018-07-02T07:02:05.960Z,29.88
2018-07-02T07:03:05.380Z,30.06
2018-07-02T07:04:07.020Z,30.12
2018-07-02T07:05:05.952Z,30.19
2018-07-02T07:06:06.216Z,30.31
2018-07-02T07:07:06.109Z,30.50
2018-07-02T07:08:05.555Z,30.44
2018-07-02T07:09:06.237Z,30.19
2018-07-02T07:10:05.640Z,29.94
2018-07-02T07:11:05.714Z,29.88
2018-07-02T07:12:06.186Z,29.81
2018-07-02T07:13:06.740Z,29.81
2018-07-02T07:14:06.037Z,29.81
2018-07-02T07:15:05.720Z,29.81
2018-07-02T07:16:05.900Z,29.75
2018-07-02T07:17:06.223Z,29.62
2018-07-02T07:18:05.882Z,29.69
2018-07-02T07:19:05.588Z,29.31
2018-07-02T07:20:11.204Z,29.12
2018-07-02T07:21:05.799Z,29.25
2018-07-02T07:22:05.966Z,29.19
2018-07-02T07:23:06.596Z,29.25
2018-07-02T07:24:05.891Z,29.00
2018-07-02T07:25:06.276Z,28.94
2018-07-02T07:26:06.352Z,28.88
2018-07-02T07:27:05.575Z,28.88
2018-07-02T07:28:05.916Z,29.00
2018-07-02T07:29:05.795Z,29.06
2018-07-02T07:30:05.963Z,29.06
2018-07-02T07:31:05.868Z,29.12
2018-07-02T07:32:06.642Z,29.31
2018-07-02T07:33:05.623Z,29.44
2018-07-02T07:34:06.811Z,29.50
2018-07-02T07:35:06.227Z,29.62
2018-07-02T07:36:06.086Z,29.62
2018-07-02T07:37:05.553Z,29.69
2018-07-02T07:38:05.554Z,29.81
2018-07-02T07:39:05.950Z,29.94
2018-07-02T07:40:05.722Z,30.00
2018-07-02T07:41:05.862Z,29.94
2018-07-02T07:42:05.709Z,29.69
2018-07-02T07:43:06.275Z,29.62
2018-07-02T07:44:05.901Z,29.44
2018-07-02T07:45:06.121Z,29.31
2018-07-02T07:46:05.642Z,29.38
2018-07-02T07:47:05.710Z,29.38
2018-07-02T07:48:06.466Z,29.31
2018-07-02T07:49:06.023Z,29.12
2018-07-02T07:50:06.131Z,29.00
2018-07-02T07:51:06.500Z,29.06
2018-07-02T07:52:07.020Z,29.06
2018-07-02T07:53:05.739Z,28.81
2018-07-02T07:54:10.868Z,28.69
2018-07-02T07:55:06.185Z,28.62
2018-07-02T07:56:11.137Z,28.56
2018-07-02T07:57:06.358Z,28.56
2018-07-02T07:58:06.661Z,28.31
2018-07-02T07:59:05.789Z,28.12
2018-07-02T08:00:06.506Z,28.06
2018-07-02T08:01:10.714Z,28.19
2018-07-02T08:02:06.267Z,28.44
2018-07-02T08:03:07.428Z,28.44
2018-07-02T08:04:05.546Z,28.50
2018-07-02T08:05:05.803Z,28.62
2018-07-02T08:06:05.571Z,28.50
2018-07-02T08:07:06.163Z,28.31
2018-07-02T08:08:06.027Z,28.25
2018-07-02T08:09:11.545Z,27.81
2018-07-02T08:10:06.123Z,27.69
2018-07-02T08:11:06.284Z,27.56
2018-07-02T08:12:06.261Z,27.56
2018-07-02T08:13:06.348Z,27.56
2018-07-02T08:14:05.627Z,27.56
2018-07-02T08:15:06.570Z,27.31
2018-07-02T08:16:06.271Z,27.19
2018-07-02T08:17:05.520Z,27.31
2018-07-02T08:18:06.105Z,27.38
2018-07-02T08:19:06.429Z,27.44
2018-07-02T08:20:05.476Z,27.31
2018-07-02T08:21:06.180Z,27.19
2018-07-02T08:22:06.194Z,27.19
2018-07-02T08:23:06.430Z,27.12
2018-07-02T08:24:05.705Z,27.06
2018-07-02T08:25:11.308Z,27.06
2018-07-02T08:26:05.794Z,26.94
2018-07-02T08:27:06.874Z,26.88
2018-07-02T08:28:06.181Z,26.62
2018-07-02T08:29:10.739Z,26.62
2018-07-02T08:30:06.143Z,26.62
2018-07-02T08:31:06.106Z,26.56
2018-07-02T08:32:05.468Z,26.62
2018-07-02T08:33:05.971Z,26.75
2018-07-02T08:34:06.339Z,26.75
2018-07-02T08:35:05.502Z,26.75
2018-07-02T08:36:05.937Z,26.69
2018-07-02T08:37:06.187Z,26.69
2018-07-02T08:38:05.717Z,26.75
2018-07-02T08:39:06.178Z,26.69
2018-07-02T08:40:05.466Z,26.56
2018-07-02T08:41:06.024Z,26.62
2018-07-02T08:42:05.447Z,26.62
2018-07-02T08:43:05.576Z,26.38
2018-07-02T08:44:05.388Z,26.31
2018-07-02T08:45:06.639Z,26.25
2018-07-02T08:46:06.438Z,26.25
2018-07-02T08:47:10.669Z,26.12
2018-07-02T08:48:06.185Z,25.94
2018-07-02T08:49:06.435Z,25.62
2018-07-02T08:50:06.298Z,25.56
2018-07-02T08:51:05.700Z,25.44
2018-07-02T08:52:11.208Z,25.38
2018-07-02T08:53:06.684Z,25.50
2018-07-02T08:54:11.424Z,25.44
2018-07-02T08:55:06.026Z,25.50
2018-07-02T08:56:06.714Z,25.56
2018-07-02T08:57:06.094Z,25.50
2018-07-02T08:58:05.545Z,25.25
2018-07-02T08:59:05.765Z,25.00
2018-07-02T09:00:06.200Z,24.81
2018-07-02T09:01:05.508Z,24.56
2018-07-02T09:02:06.134Z,24.44
2018-07-02T09:03:06.246Z,24.50
2018-07-02T09:04:06.574Z,24.50
2018-07-02T09:05:05.940Z,24.50
2018-07-02T09:06:06.940Z,24.56
2018-07-02T09:07:10.816Z,24.75
2018-07-02T09:08:06.040Z,24.88
2018-07-02T09:09:06.180Z,24.75
2018-07-02T09:10:05.620Z,24.75
2018-07-02T09:11:12.284Z,24.56
2018-07-02T09:12:05.790Z,24.56
2018-07-02T09:13:05.858Z,24.56
2018-07-02T09:14:05.969Z,24.56
2018-07-02T09:15:05.779Z,24.56
2018-07-02T09:16:06.346Z,24.62
2018-07-02T09:17:06.278Z,24.62
2018-07-02T09:18:06.318Z,24.50
2018-07-02T09:19:05.688Z,24.50
2018-07-02T09:20:05.784Z,24.56
2018-07-02T09:21:06.024Z,24.44
2018-07-02T09:22:10.464Z,24.31
2018-07-02T09:23:05.895Z,24.06
2018-07-02T09:24:05.881Z,24.12
2018-07-02T09:25:06.267Z,24.06
2018-07-02T09:26:06.439Z,24.06
2018-07-02T09:27:06.178Z,24.06
2018-07-02T09:28:05.716Z,24.00
2018-07-02T09:29:05.697Z,23.94
2018-07-02T09:30:05.559Z,23.88
2018-07-02T09:31:06.806Z,23.94
2018-07-02T09:32:06.403Z,24.06
2018-07-02T09:33:05.783Z,24.06
2018-07-02T09:34:05.962Z,24.06
2018-07-02T09:35:05.538Z,23.94
2018-07-02T09:36:11.012Z,23.94
2018-07-02T09:37:06.265Z,23.94
2018-07-02T09:38:06.435Z,23.88
2018-07-02T09:39:05.898Z,23.81
2018-07-02T09:40:11.446Z,23.81
2018-07-02T09:41:05.778Z,23.69
2018-07-02T09:42:06.851Z,23.69
2018-07-02T09:43:05.778Z,23.69
2018-07-02T09:44:06.051Z,23.62
2018-07-02T09:45:05.609Z,23.62
2018-07-02T09:46:05.631Z,23.62
2018-07-02T09:47:05.700Z,23.62
2018-07-02T09:48:06.273Z,23.62
2018-07-02T09:49:05.644Z,23.62
2018-07-02T09:50:06.013Z,23.56
2018-07-02T09:51:06.265Z,23.56
2018-07-02T09:52:06.124Z,23.44
2018-07-02T09:53:10.812Z,23.50
2018-07-02T09:54:10.946Z,23.56
2018-07-02T09:55:06.258Z,23.69
2018-07-02T09:56:05.694Z,23.69
2018-07-02T09:57:05.558Z,23.69
2018-07-02T09:58:06.178Z,23.56
2018-07-02T09:59:05.779Z,23.50
2018-07-02T10:00:05.931Z,23.38
2018-07-02T10:01:06.346Z,23.50
2018-07-02T10:02:05.936Z,23.69
2018-07-02T10:03:06.105Z,23.75
2018-07-02T10:04:05.470Z,23.75
2018-07-02T10:05:05.535Z,23.69
2018-07-02T10:06:05.771Z,23.62
2018-07-02T10:07:05.940Z,23.69
2018-07-02T10:08:05.707Z,23.69
2018-07-02T10:09:05.617Z,23.69
2018-07-02T10:10:06.275Z,23.62
2018-07-02T10:11:06.417Z,23.75
2018-07-02T10:12:06.098Z,23.75
2018-07-02T10:13:06.661Z,23.75
2018-07-02T10:14:05.545Z,23.75
2018-07-02T10:15:06.088Z,23.62
2018-07-02T10:16:06.011Z,23.56
2018-07-02T10:17:05.480Z,23.56
2018-07-02T10:18:05.698Z,23.69
2018-07-02T10:19:06.003Z,23.75
2018-07-02T10:20:05.848Z,23.81
2018-07-02T10:21:05.551Z,23.81
2018-07-02T10:22:06.421Z,23.75
2018-07-02T10:23:05.696Z,23.62
2018-07-02T10:24:06.003Z,23.50
2018-07-02T10:25:06.524Z,23.38
2018-07-02T10:26:05.947Z,23.31
2018-07-02T10:27:06.170Z,23.19
2018-07-02T10:28:06.443Z,23.19
2018-07-02T10:29:05.876Z,23.12
2018-07-02T10:30:06.505Z,23.12
2018-07-02T10:31:06.123Z,22.94
2018-07-02T10:32:05.922Z,23.00
2018-07-02T10:33:05.776Z,22.94
2018-07-02T10:34:06.395Z,23.00
2018-07-02T10:35:05.570Z,23.12
2018-07-02T10:36:06.166Z,23.12
2018-07-02T10:37:05.946Z,23.19
2018-07-02T10:38:06.266Z,23.19
2018-07-02T10:39:11.102Z,23.19
2018-07-02T10:40:05.717Z,23.19
2018-07-02T10:41:06.321Z,23.19
2018-07-02T10:42:06.364Z,23.25
2018-07-02T10:43:06.070Z,23.25
2018-07-02T10:44:05.928Z,23.25
2018-07-02T10:45:05.690Z,23.31
2018-07-02T10:46:05.951Z,23.31
2018-07-02T10:47:07.121Z,23.25
2018-07-02T10:48:06.461Z,23.25
2018-07-02T10:49:06.061Z,23.25
2018-07-02T10:50:06.182Z,23.31
2018-07-02T10:51:05.993Z,23.31
2018-07-02T10:52:06.451Z,23.19
2018-07-02T10:53:06.021Z,23.25
2018-07-02T10:54:05.935Z,23.25
2018-07-02T10:55:06.050Z,23.25
2018-07-02T10:56:06.178Z,23.31
2018-07-02T10:57:06.008Z,23.19
2018-07-02T10:58:10.883Z,23.12
2018-07-02T10:59:06.331Z,23.06
2018-07-02T11:00:05.373Z,23.06
2018-07-02T11:01:06.252Z,23.00
2018-07-02T11:02:06.550Z,23.00
2018-07-02T11:03:06.306Z,23.00
2018-07-02T11:04:10.583Z,23.00
2018-07-02T11:05:06.179Z,22.94
2018-07-02T11:06:06.181Z,23.00
2018-07-02T11:07:06.248Z,23.06
2018-07-02T11:08:06.177Z,23.19
2018-07-02T11:09:05.688Z,23.19
2018-07-02T11:10:06.526Z,23.19
2018-07-02T11:11:05.456Z,23.19
2018-07-02T11:12:05.938Z,23.25
2018-07-02T11:13:05.893Z,23.25
2018-07-02T11:14:06.787Z,23.31
2018-07-02T11:15:06.219Z,23.38
2018-07-02T11:16:05.929Z,23.38
2018-07-02T11:17:11.993Z,23.38
2018-07-02T11:18:06.502Z,23.25
2018-07-02T11:19:06.282Z,23.25
2018-07-02T11:20:05.855Z,23.25
2018-07-02T11:21:05.549Z,23.25
2018-07-02T11:22:06.174Z,23.25
2018-07-02T11:23:10.662Z,23.31
2018-07-02T11:24:05.929Z,23.31
2018-07-02T11:25:06.233Z,23.12
2018-07-02T11:26:06.023Z,23.06
2018-07-02T11:27:05.620Z,23.00
2018-07-02T11:28:05.552Z,22.94
2018-07-02T11:29:05.772Z,22.94
2018-07-02T11:30:05.531Z,22.94
2018-07-02T11:31:05.778Z,22.94
2018-07-02T11:32:06.251Z,22.94
2018-07-02T11:33:06.192Z,22.94
2018-07-02T11:34:05.936Z,22.94
2018-07-02T11:35:06.436Z,22.94
2018-07-02T11:36:05.841Z,22.94
2018-07-02T11:37:05.555Z,23.00
2018-07-02T11:38:05.462Z,23.00
2018-07-02T11:39:06.885Z,23.00
2018-07-02T11:40:05.817Z,23.00
2018-07-02T11:41:06.174Z,23.00
2018-07-02T11:42:06.351Z,23.00
2018-07-02T11:43:05.780Z,23.06
2018-07-02T11:44:06.023Z,23.00
2018-07-02T11:45:05.460Z,22.94
2018-07-02T11:46:07.502Z,23.00
2018-07-02T11:47:06.562Z,23.06
2018-07-02T11:48:06.536Z,23.06
2018-07-02T11:49:06.302Z,23.12
2018-07-02T11:50:11.534Z,23.19
2018-07-02T11:51:05.697Z,23.19
2018-07-02T11:52:06.018Z,23.25
2018-07-02T11:53:05.981Z,23.12
2018-07-02T11:54:06.207Z,23.19
2018-07-02T11:55:06.907Z,23.19
2018-07-02T11:56:06.104Z,23.25
2018-07-02T11:57:05.541Z,23.25
2018-07-02T11:58:05.866Z,23.25
2018-07-02T11:59:06.042Z,23.31
2018-07-02T12:00:06.012Z,23.25
2018-07-02T12:01:05.770Z,23.25
2018-07-02T12:02:06.190Z,23.12
2018-07-02T12:03:06.524Z,23.06
2018-07-02T12:04:05.701Z,23.06
2018-07-02T12:05:05.536Z,23.06
2018-07-02T12:06:05.810Z,23.06
2018-07-02T12:07:05.816Z,23.06
2018-07-02T12:08:06.594Z,23.06
2018-07-02T12:09:06.247Z,23.12
2018-07-02T12:10:05.696Z,23.19
2018-07-02T12:11:05.946Z,23.25
2018-07-02T12:12:05.809Z,23.25
2018-07-02T12:13:06.566Z,23.19
2018-07-02T12:14:06.159Z,23.12
2018-07-02T12:15:06.172Z,23.06
2018-07-02T12:16:05.845Z,23.12
2018-07-02T12:17:05.868Z,23.12
2018-07-02T12:18:05.579Z,23.12
2018-07-02T12:19:05.373Z,23.12
2018-07-02T12:20:10.612Z,23.12
2018-07-02T12:21:06.091Z,23.06
2018-07-02T12:22:05.694Z,23.12
2018-07-02T12:23:05.655Z,23.06
2018-07-02T12:24:05.451Z,23.06
2018-07-02T12:25:05.772Z,23.06
2018-07-02T12:26:06.723Z,23.00
2018-07-02T12:27:06.263Z,23.00
2018-07-02T12:28:06.187Z,23.00
2018-07-02T12:29:06.426Z,22.94
2018-07-02T12:30:05.997Z,22.88
2018-07-02T12:31:05.614Z,22.88
2018-07-02T12:32:05.789Z,22.94
2018-07-02T12:33:06.263Z,22.94
2018-07-02T12:34:06.334Z,23.06
2018-07-02T12:35:10.501Z,23.06
2018-07-02T12:36:06.106Z,23.12
2018-07-02T12:37:05.937Z,23.06
2018-07-02T12:38:06.195Z,23.12
2018-07-02T12:39:06.272Z,23.19
2018-07-02T12:40:11.020Z,23.19
2018-07-02T12:41:05.544Z,23.12
2018-07-02T12:42:06.457Z,23.12
2018-07-02T12:43:06.328Z,23.06
2018-07-02T12:44:06.238Z,23.06
2018-07-02T12:45:11.218Z,23.06
2018-07-02T12:46:05.697Z,23.00
2018-07-02T12:47:06.190Z,23.00
2018-07-02T12:48:06.102Z,23.00
2018-07-02T12:49:05.459Z,23.06
2018-07-02T12:50:06.197Z,23.00
2018-07-02T12:51:05.730Z,23.06
2018-07-02T12:52:11.303Z,23.06
2018-07-02T12:53:05.721Z,23.12
2018-07-02T12:54:05.638Z,23.19
2018-07-02T12:55:05.783Z,23.19